createdAt,value
2023-05-19T00:01:57.365Z,6.8
2023-05-19T00:04:05.435Z,6.8
2023-05-19T00:06:13.389Z,6.8
2023-05-19T00:08:23.375Z,6.8
2023-05-19T00:10:33.029Z,6.7
2023-05-19T00:12:41.488Z,6.6
2023-05-19T00:14:49.561Z,6.5
2023-05-19T00:17:01.601Z,6.5
2023-05-19T00:19:09.730Z,6.4
2023-05-19T00:21:17.461Z,6.4
2023-05-19T00:23:24.988Z,6.4
2023-05-19T00:25:32.579Z,6.4
2023-05-19T00:27:40.058Z,6.4
2023-05-19T00:29:47.602Z,6.4
2023-05-19T00:31:55.262Z,6.4
2023-05-19T00:34:04.273Z,6.3
2023-05-19T00:36:12.887Z,6.2
2023-05-19T00:38:20.433Z,6.2
2023-05-19T00:40:29.880Z,6.2
2023-05-19T00:42:37.864Z,6.2
2023-05-19T00:44:45.408Z,6.3
2023-05-19T00:46:52.911Z,6.3
2023-05-19T00:49:00.529Z,6.3
2023-05-19T00:51:09.534Z,6.3
2023-05-19T00:53:19.056Z,6.4
2023-05-19T00:55:30.274Z,6.3
2023-05-19T00:57:38.343Z,6.4
2023-05-19T00:59:46.200Z,6.4
2023-05-19T01:01:54.130Z,6.4
2023-05-19T01:04:04.294Z,6.4
2023-05-19T01:06:13.182Z,6.4
2023-05-19T01:08:21.770Z,6.3
2023-05-19T01:10:29.664Z,6.3
2023-05-19T01:12:41.771Z,6.3
2023-05-19T01:14:49.260Z,6.3
2023-05-19T01:17:05.052Z,6.4
2023-05-19T01:19:30.383Z,6.4
2023-05-19T01:22:15.291Z,6.5
2023-05-19T01:24:44.682Z,6.5
2023-05-19T01:27:14.040Z,6.5
2023-05-19T01:29:40.786Z,6.5
2023-05-19T01:31:50.609Z,6.5
2023-05-19T01:33:59.204Z,6.5
2023-05-19T01:36:09.138Z,6.4
2023-05-19T01:38:19.200Z,6.3
2023-05-19T01:40:28.657Z,6.2
2023-05-19T01:42:39.405Z,6.2
2023-05-19T01:44:48.053Z,6.2
2023-05-19T01:46:57.669Z,6.2
2023-05-19T01:49:06.123Z,6.3
2023-05-19T01:51:13.970Z,6.3
2023-05-19T01:53:21.469Z,6.3
2023-05-19T01:55:31.317Z,6.3
2023-05-19T01:57:48.450Z,6.2
2023-05-19T02:00:05.341Z,6.2
2023-05-19T02:02:25.694Z,6.2
2023-05-19T02:04:43.833Z,6.3
2023-05-19T02:06:58.075Z,6.3
2023-05-19T02:09:14.634Z,6.4
2023-05-19T02:11:28.057Z,6.4
2023-05-19T02:13:41.899Z,6.3
2023-05-19T02:15:50.418Z,6.2
2023-05-19T02:18:04.127Z,6.2
2023-05-19T02:20:12.495Z,6.3
2023-05-19T02:22:20.076Z,6.3
2023-05-19T02:24:28.157Z,6.2
2023-05-19T02:26:35.663Z,6.1
2023-05-19T02:28:43.250Z,6.1
2023-05-19T02:30:51.166Z,6.1
2023-05-19T02:33:00.253Z,6.1
2023-05-19T02:35:08.337Z,6.1
2023-05-19T02:37:16.667Z,6.2
2023-05-19T02:39:24.362Z,6.1
2023-05-19T02:41:32.139Z,6.1
2023-05-19T02:43:39.659Z,6
2023-05-19T02:45:47.148Z,5.9
2023-05-19T02:47:54.777Z,5.8
2023-05-19T02:50:03.670Z,5.9
2023-05-19T02:52:11.771Z,5.9
2023-05-19T02:54:19.540Z,5.8
2023-05-19T02:56:27.870Z,5.9
2023-05-19T02:58:35.383Z,5.9
2023-05-19T03:00:44.825Z,5.9
2023-05-19T03:02:52.826Z,6
2023-05-19T03:05:01.338Z,6
2023-05-19T03:07:10.735Z,5.9
2023-05-19T03:09:18.350Z,5.9
2023-05-19T03:11:26.015Z,5.8
2023-05-19T03:13:34.489Z,5.8
2023-05-19T03:15:47.725Z,5.8
2023-05-19T03:17:55.466Z,5.8
2023-05-19T03:20:04.884Z,5.9
2023-05-19T03:22:13.706Z,5.9
2023-05-19T03:24:21.175Z,6
2023-05-19T03:26:29.400Z,6
2023-05-19T03:28:37.060Z,6
2023-05-19T03:30:44.558Z,6.1
2023-05-19T03:32:52.890Z,6.1
2023-05-19T03:35:00.625Z,6.2
2023-05-19T03:37:10.258Z,6.2
2023-05-19T03:39:19.377Z,6.2
2023-05-19T03:41:26.992Z,6.3
2023-05-19T03:43:34.476Z,6.3
2023-05-19T03:45:41.975Z,6.4
2023-05-19T03:47:49.773Z,6.4
2023-05-19T03:49:57.315Z,6.5
2023-05-19T03:52:05.163Z,6.5
2023-05-19T03:54:12.581Z,6.6
2023-05-19T03:56:24.649Z,6.6
2023-05-19T03:58:32.115Z,6.6
2023-05-19T04:00:39.657Z,6.7
2023-05-19T04:02:47.208Z,6.7
2023-05-19T04:04:55.635Z,6.7
2023-05-19T04:07:03.263Z,6.8
2023-05-19T04:09:13.834Z,6.9
2023-05-19T04:11:22.941Z,6.9
2023-05-19T04:13:30.419Z,7
2023-05-19T04:15:38.147Z,7.1
2023-05-19T04:17:45.861Z,7.1
2023-05-19T04:19:53.501Z,7.2
2023-05-19T04:22:01.035Z,7.2
2023-05-19T04:24:08.790Z,7.3
2023-05-19T04:26:17.679Z,7.5
2023-05-19T04:28:26.535Z,7.7
2023-05-19T04:30:34.247Z,8
2023-05-19T04:32:41.853Z,8.3
2023-05-19T04:34:49.347Z,8.5
2023-05-19T04:36:57.169Z,8.7
2023-05-19T04:39:09.401Z,8.8
2023-05-19T04:41:17.364Z,8.9
2023-05-19T04:43:26.969Z,8.9
2023-05-19T04:45:34.526Z,8.9
2023-05-19T04:47:42.942Z,8.9
2023-05-19T04:49:55.064Z,8.9
2023-05-19T04:52:03.163Z,8.9
2023-05-19T04:54:10.841Z,9
2023-05-19T04:56:18.367Z,9.1
2023-05-19T04:58:27.501Z,9.1
2023-05-19T05:00:36.011Z,9.1
2023-05-19T05:02:44.012Z,9.2
2023-05-19T05:04:54.197Z,9.3
2023-05-19T05:07:01.737Z,9.4
2023-05-19T05:09:11.201Z,9.5
2023-05-19T05:11:20.006Z,9.5
2023-05-19T05:13:29.668Z,9.6
2023-05-19T05:15:37.663Z,9.7
2023-05-19T05:17:45.675Z,9.7
2023-05-19T05:19:53.863Z,9.8
2023-05-19T05:22:02.259Z,9.9
2023-05-19T05:24:12.382Z,10
2023-05-19T05:26:23.340Z,10.2
2023-05-19T05:28:32.199Z,10.2
2023-05-19T05:30:41.120Z,10.3
2023-05-19T05:32:48.727Z,10.4
2023-05-19T05:34:56.339Z,10.4
2023-05-19T05:37:03.836Z,10.5
2023-05-19T05:39:11.787Z,10.6
2023-05-19T05:41:19.551Z,10.7
2023-05-19T05:43:27.039Z,10.8
2023-05-19T05:45:35.929Z,10.8
2023-05-19T05:47:43.973Z,10.9
2023-05-19T05:49:53.512Z,11
2023-05-19T05:52:06.038Z,11.2
2023-05-19T05:54:16.713Z,11.3
2023-05-19T05:56:24.826Z,11.4
2023-05-19T05:58:32.689Z,11.5
2023-05-19T06:00:43.094Z,11.7
2023-05-19T06:02:51.627Z,11.9
2023-05-19T06:04:59.307Z,12.1
2023-05-19T06:07:07.293Z,12.2
2023-05-19T06:09:17.393Z,12.3
2023-05-19T06:11:25.003Z,12.3
2023-05-19T06:13:32.633Z,12.4
2023-05-19T06:15:41.683Z,12.5
2023-05-19T06:17:49.639Z,12.5
2023-05-19T06:19:57.212Z,12.5
2023-05-19T06:22:05.315Z,12.5
2023-05-19T06:24:12.859Z,12.6
2023-05-19T06:26:20.593Z,12.7
2023-05-19T06:28:28.456Z,12.7
2023-05-19T06:30:36.497Z,12.8
2023-05-19T06:32:45.927Z,12.8
2023-05-19T06:34:54.586Z,12.9
2023-05-19T06:37:02.629Z,13
2023-05-19T06:39:13.266Z,13
2023-05-19T06:41:21.301Z,13
2023-05-19T06:43:29.940Z,13.1
2023-05-19T06:45:37.586Z,13.1
2023-05-19T06:47:46.513Z,13.2
2023-05-19T06:49:55.337Z,13.3
2023-05-19T06:52:03.241Z,13.4
2023-05-19T06:54:12.687Z,13.5
2023-05-19T06:56:22.502Z,13.6
2023-05-19T06:58:30.046Z,13.7
2023-05-19T07:00:37.619Z,13.8
2023-05-19T07:02:47.479Z,13.9
2023-05-19T07:04:57.248Z,14
2023-05-19T07:07:05.597Z,14.1
2023-05-19T07:09:13.571Z,14.1
2023-05-19T07:11:22.490Z,14.2
2023-05-19T07:13:30.077Z,14.2
2023-05-19T07:15:37.792Z,14.2
2023-05-19T07:17:47.202Z,14.3
2023-05-19T07:19:54.704Z,14.4
2023-05-19T07:22:02.375Z,14.5
2023-05-19T07:24:09.979Z,14.5
2023-05-19T07:26:17.610Z,14.4
2023-05-19T07:28:25.614Z,14.5
2023-05-19T07:30:33.560Z,14.5
2023-05-19T07:32:41.593Z,14.5
2023-05-19T07:34:50.917Z,14.5
2023-05-19T07:36:58.607Z,14.5
2023-05-19T07:39:07.350Z,14.6
2023-05-19T07:41:16.514Z,14.5
2023-05-19T07:43:24.234Z,14.5
2023-05-19T07:45:31.840Z,14.5
2023-05-19T07:47:39.623Z,14.6
2023-05-19T07:49:47.779Z,14.8
2023-05-19T07:51:58.092Z,14.8
2023-05-19T07:54:05.634Z,14.9
2023-05-19T07:56:13.571Z,15
2023-05-19T07:58:22.025Z,15.1
2023-05-19T08:00:29.831Z,15
2023-05-19T08:02:37.643Z,15
2023-05-19T08:04:45.500Z,15.2
2023-05-19T08:06:53.016Z,15.3
2023-05-19T08:09:05.092Z,15.6
2023-05-19T08:11:12.720Z,15.9
2023-05-19T08:13:20.328Z,16
2023-05-19T08:15:27.998Z,16
2023-05-19T08:17:35.887Z,15.9
2023-05-19T08:19:43.404Z,15.9
2023-05-19T08:21:51.234Z,15.9
2023-05-19T08:23:58.743Z,15.9
2023-05-19T08:26:07.918Z,15.8
2023-05-19T08:28:15.685Z,15.8
2023-05-19T08:30:24.218Z,15.6
2023-05-19T08:32:32.114Z,15.6
2023-05-19T08:34:41.883Z,15.5
2023-05-19T08:36:50.104Z,15.6
2023-05-19T08:38:57.604Z,15.7
2023-05-19T08:41:06.830Z,15.8
2023-05-19T08:43:14.496Z,15.7
2023-05-19T08:45:22.030Z,15.8
2023-05-19T08:47:30.205Z,16
2023-05-19T08:49:44.199Z,16.1
2023-05-19T08:51:59.055Z,16.3
2023-05-19T08:54:15.785Z,16.4
2023-05-19T08:56:26.312Z,16.5
2023-05-19T08:58:34.407Z,16.7
2023-05-19T09:00:42.805Z,16.8
2023-05-19T09:02:55.531Z,16.9
2023-05-19T09:05:16.240Z,17.1
2023-05-19T09:07:25.154Z,17.3
2023-05-19T09:09:33.069Z,17.3
2023-05-19T09:11:46.045Z,17.5
2023-05-19T09:13:53.841Z,17.5
2023-05-19T09:16:01.698Z,17.4
2023-05-19T09:18:10.700Z,17.5
2023-05-19T09:20:18.347Z,17.7
2023-05-19T09:22:26.319Z,17.8
2023-05-19T09:24:35.851Z,17.9
2023-05-19T09:26:44.744Z,18.1
2023-05-19T09:28:52.378Z,18.2
2023-05-19T09:31:00.871Z,18.4
2023-05-19T09:33:09.715Z,18.5
2023-05-19T09:35:19.795Z,18.4
2023-05-19T09:37:29.195Z,18.1
2023-05-19T09:39:36.929Z,18.1
2023-05-19T09:41:45.956Z,18.2
2023-05-19T09:43:55.807Z,18.4
2023-05-19T09:46:05.274Z,18.3
2023-05-19T09:48:15.273Z,18.1
2023-05-19T09:50:23.656Z,18.5
2023-05-19T09:52:31.818Z,18.7
2023-05-19T09:54:41.216Z,18.6
2023-05-19T09:56:59.512Z,18.7
2023-05-19T09:59:08.047Z,18.9
2023-05-19T10:01:16.510Z,18.9
2023-05-19T10:03:24.590Z,19.2
2023-05-19T10:05:33.757Z,19.4
2023-05-19T10:07:41.937Z,19.7
2023-05-19T10:09:50.901Z,19.7
2023-05-19T10:11:59.995Z,19.7
2023-05-19T10:14:08.731Z,19.8
2023-05-19T10:16:17.078Z,19.9
2023-05-19T10:18:27.334Z,20
2023-05-19T10:20:35.978Z,20.2
2023-05-19T10:22:45.249Z,20.3
2023-05-19T10:24:52.829Z,20.2
2023-05-19T10:27:06.737Z,20.1
2023-05-19T10:29:18.011Z,20.1
2023-05-19T10:31:28.029Z,20.2
2023-05-19T10:33:42.667Z,20.3
2023-05-19T10:36:28.089Z,20.3
2023-05-19T10:38:45.868Z,20.2
2023-05-19T10:41:01.773Z,20.2
2023-05-19T10:43:20.438Z,20.1
2023-05-19T10:45:31.371Z,20.2
2023-05-19T10:47:42.708Z,20.2
2023-05-19T10:49:50.449Z,20.4
2023-05-19T10:51:58.166Z,20.6
2023-05-19T10:54:10.407Z,20.6
2023-05-19T10:56:32.490Z,20.5
2023-05-19T10:58:51.726Z,20.3
2023-05-19T11:01:01.889Z,20.2
2023-05-19T11:03:16.130Z,20.2
2023-05-19T11:05:30.320Z,20.3
2023-05-19T11:07:38.459Z,20.5
2023-05-19T11:09:50.807Z,20.5
2023-05-19T11:12:04.274Z,20.3
2023-05-19T11:14:16.747Z,20.3
2023-05-19T11:16:32.911Z,20.5
2023-05-19T11:18:41.007Z,20.5
2023-05-19T11:20:58.239Z,20.5
2023-05-19T11:23:07.440Z,20.4
2023-05-19T11:25:39.175Z,20.4
2023-05-19T11:27:47.576Z,20.4
2023-05-19T11:29:58.923Z,20.3
2023-05-19T11:32:08.082Z,20.4
2023-05-19T11:34:16.880Z,20.4
2023-05-19T11:36:25.528Z,20.4
2023-05-19T11:38:35.052Z,20.3
2023-05-19T11:40:42.977Z,20.3
2023-05-19T11:42:50.472Z,20.1
2023-05-19T11:44:59.359Z,20.2
2023-05-19T11:47:07.629Z,20.4
2023-05-19T11:49:16.481Z,20.4
2023-05-19T11:51:24.722Z,20.5
2023-05-19T11:53:35.846Z,20.6
2023-05-19T11:55:45.312Z,20.7
2023-05-19T11:58:03.684Z,20.7
2023-05-19T12:00:15.890Z,20.8
2023-05-19T12:02:27.092Z,20.7
2023-05-19T12:04:37.161Z,20.5
2023-05-19T12:06:45.252Z,20.4
2023-05-19T12:08:53.444Z,20.5
2023-05-19T12:11:01.732Z,20.3
2023-05-19T12:13:11.313Z,20.3
2023-05-19T12:15:21.952Z,20.3
2023-05-19T12:17:29.468Z,20.2
2023-05-19T12:19:37.091Z,20.1
2023-05-19T12:21:44.794Z,20.1
2023-05-19T12:23:52.665Z,20.2
2023-05-19T12:26:00.893Z,20.3
2023-05-19T12:28:08.428Z,20.4
2023-05-19T12:30:18.032Z,20.5
2023-05-19T12:32:28.298Z,20.5
2023-05-19T12:34:38.145Z,20.4
2023-05-19T12:36:46.933Z,20.3
2023-05-19T12:38:55.910Z,20.5
2023-05-19T12:41:03.513Z,20.7
2023-05-19T12:43:20.687Z,20.9
2023-05-19T12:45:28.975Z,21.1
2023-05-19T12:47:38.556Z,21.2
2023-05-19T12:49:56.420Z,21
2023-05-19T12:52:07.289Z,20.8
2023-05-19T12:54:20.411Z,20.9
2023-05-19T12:56:28.364Z,20.8
2023-05-19T12:58:36.017Z,20.9
2023-05-19T13:00:45.319Z,21.1
2023-05-19T13:02:59.357Z,21.3
2023-05-19T13:05:07.226Z,21.4
2023-05-19T13:07:15.203Z,21.6
2023-05-19T13:09:24.007Z,21.9
2023-05-19T13:11:32.111Z,22
2023-05-19T13:13:39.677Z,22.3
2023-05-19T13:15:49.439Z,22.5
2023-05-19T13:17:58.563Z,22.7
2023-05-19T13:20:08.052Z,22.7
2023-05-19T13:22:15.711Z,22.5
2023-05-19T13:24:23.342Z,22.5
2023-05-19T13:26:31.228Z,22.5
2023-05-19T13:28:40.341Z,22.5
2023-05-19T13:30:49.422Z,22.6
2023-05-19T13:32:58.449Z,22.5
2023-05-19T13:35:07.341Z,22.7
2023-05-19T13:37:15.297Z,22.9
2023-05-19T13:39:22.935Z,22.9
2023-05-19T13:41:30.485Z,22.8
2023-05-19T13:43:38.020Z,23
2023-05-19T13:45:45.609Z,22.8
2023-05-19T13:47:53.318Z,22.8
2023-05-19T13:50:04.743Z,22.8
2023-05-19T13:52:12.604Z,22.5
2023-05-19T13:54:20.563Z,22.4
2023-05-19T13:56:28.038Z,22.4
2023-05-19T13:58:36.404Z,22.4
2023-05-19T14:00:43.874Z,22.4
2023-05-19T14:02:52.401Z,22.4
2023-05-19T14:05:00.089Z,22.2
2023-05-19T14:07:10.073Z,22.1
2023-05-19T14:09:17.689Z,22
2023-05-19T14:11:25.835Z,22
2023-05-19T14:13:36.246Z,22
2023-05-19T14:15:46.972Z,22.1
2023-05-19T14:17:54.622Z,22.2
2023-05-19T14:20:02.529Z,22.1
2023-05-19T14:22:12.932Z,22.2
2023-05-19T14:24:20.561Z,22.2
2023-05-19T14:26:29.282Z,22.1
2023-05-19T14:28:38.462Z,22
2023-05-19T14:30:45.949Z,21.9
2023-05-19T14:32:53.705Z,21.8
2023-05-19T14:35:01.845Z,21.9
2023-05-19T14:37:10.959Z,21.7
2023-05-19T14:39:19.012Z,21.6
2023-05-19T14:41:26.904Z,21.4
2023-05-19T14:43:34.413Z,21.4
2023-05-19T14:45:42.384Z,21.4
2023-05-19T14:47:50.007Z,21.3
2023-05-19T14:49:57.518Z,21.4
2023-05-19T14:52:05.500Z,21.3
2023-05-19T14:54:15.402Z,21.3
2023-05-19T14:56:23.035Z,21.2
2023-05-19T14:58:30.611Z,20.9
2023-05-19T15:00:38.114Z,20.7
2023-05-19T15:02:45.892Z,20.7
2023-05-19T15:04:53.478Z,20.6
2023-05-19T15:09:15.103Z,20.7
2023-05-19T15:11:22.932Z,20.7
2023-05-19T15:13:30.511Z,20.6
2023-05-19T15:15:38.022Z,20.5
2023-05-19T15:17:47.519Z,20.5
2023-05-19T15:19:55.051Z,20.5
2023-05-19T15:22:04.115Z,20.6
2023-05-19T15:24:11.695Z,20.8
2023-05-19T15:26:20.670Z,21
2023-05-19T15:28:28.308Z,21
2023-05-19T15:30:36.077Z,21
2023-05-19T15:32:43.717Z,21.1
2023-05-19T15:34:51.349Z,21.1
2023-05-19T15:36:58.861Z,21
2023-05-19T15:39:06.676Z,20.8
2023-05-19T15:41:14.228Z,20.7
2023-05-19T15:43:23.032Z,20.5
2023-05-19T15:45:30.551Z,20.4
2023-05-19T15:47:38.096Z,20.6
2023-05-19T15:49:45.762Z,20.7
2023-05-19T15:51:53.233Z,20.7
2023-05-19T15:54:00.676Z,20.6
2023-05-19T15:56:08.364Z,20.5
2023-05-19T15:58:16.102Z,20.3
2023-05-19T16:00:24.930Z,20.1
2023-05-19T16:02:32.536Z,20
2023-05-19T16:04:40.118Z,19.8
2023-05-19T16:06:47.732Z,19.9
2023-05-19T16:08:55.307Z,19.9
2023-05-19T16:11:02.914Z,19.9
2023-05-19T16:13:10.457Z,19.8
2023-05-19T16:15:18.067Z,19.7
2023-05-19T16:17:28.728Z,19.8
2023-05-19T16:19:36.334Z,19.9
2023-05-19T16:21:43.892Z,19.9
2023-05-19T16:23:51.602Z,19.7
2023-05-19T16:25:59.106Z,19.5
2023-05-19T16:28:06.684Z,19.5
2023-05-19T16:30:16.132Z,19.6
2023-05-19T16:32:24.120Z,19.6
2023-05-19T16:34:33.094Z,19.5
2023-05-19T16:36:40.608Z,19.4
2023-05-19T16:38:48.232Z,19.2
2023-05-19T16:40:55.861Z,19.1
2023-05-19T16:43:03.366Z,18.9
2023-05-19T16:45:11.443Z,19
2023-05-19T16:47:18.956Z,19
2023-05-19T16:49:26.531Z,18.9
2023-05-19T16:51:35.426Z,18.7
2023-05-19T16:53:42.966Z,18.3
2023-05-19T16:55:51.122Z,18.2
2023-05-19T16:57:59.028Z,18.2
2023-05-19T17:00:08.228Z,18.3
2023-05-19T17:02:15.774Z,18.5
2023-05-19T17:04:23.606Z,18.7
2023-05-19T17:06:31.504Z,18.8
2023-05-19T17:08:40.571Z,19
2023-05-19T17:10:49.467Z,19
2023-05-19T17:12:57.077Z,18.9
2023-05-19T17:15:05.619Z,18.9
2023-05-19T17:17:13.223Z,18.8
2023-05-19T17:19:22.126Z,18.8
2023-05-19T17:21:29.939Z,18.8
2023-05-19T17:23:37.974Z,18.7
2023-05-19T17:25:47.414Z,18.6
2023-05-19T17:27:55.965Z,18.5
2023-05-19T17:30:03.717Z,18.4
2023-05-19T17:32:11.400Z,18.2
2023-05-19T17:34:19.048Z,18.1
2023-05-19T17:36:28.106Z,17.8
2023-05-19T17:38:39.717Z,17.7
2023-05-19T17:40:48.713Z,17.5
2023-05-19T17:42:56.472Z,17.3
2023-05-19T17:45:07.111Z,17.1
2023-05-19T17:47:15.281Z,17
2023-05-19T17:49:25.424Z,16.8
2023-05-19T17:51:33.462Z,16.7
2023-05-19T17:53:42.151Z,16.6
2023-05-19T17:55:53.644Z,16.4
2023-05-19T17:58:03.151Z,16.4
2023-05-19T18:00:17.114Z,16.2
2023-05-19T18:02:26.605Z,16.2
2023-05-19T18:04:38.946Z,16
2023-05-19T18:06:49.206Z,16
2023-05-19T18:09:01.679Z,15.9
2023-05-19T18:11:15.706Z,15.8
2023-05-19T18:13:23.475Z,15.7
2023-05-19T18:15:31.698Z,15.6
2023-05-19T18:17:39.283Z,15.7
2023-05-19T18:19:46.945Z,15.5
2023-05-19T18:21:54.478Z,15.4
2023-05-19T18:24:04.097Z,15.3
2023-05-19T18:26:13.817Z,15.3
2023-05-19T18:28:23.355Z,15.2
2023-05-19T18:30:30.917Z,15.2
2023-05-19T18:32:41.818Z,15.1
2023-05-19T18:34:50.631Z,15.1
2023-05-19T18:36:59.389Z,15
2023-05-19T18:39:07.957Z,14.9
2023-05-19T18:41:19.130Z,14.9
2023-05-19T18:43:29.963Z,14.8
2023-05-19T18:45:38.197Z,14.8
2023-05-19T18:47:49.237Z,14.7
2023-05-19T18:49:57.588Z,14.7
2023-05-19T18:52:11.877Z,14.6
2023-05-19T18:54:22.583Z,14.5
2023-05-19T18:56:34.091Z,14.5
2023-05-19T18:58:41.650Z,14.5
2023-05-19T19:00:49.999Z,14.4
2023-05-19T19:02:57.624Z,14.4
2023-05-19T19:05:09.894Z,14.3
2023-05-19T19:07:17.491Z,14.3
2023-05-19T19:09:25.030Z,14.2
2023-05-19T19:11:33.943Z,14.1
2023-05-19T19:13:41.414Z,14.1
2023-05-19T19:15:48.993Z,14.1
2023-05-19T19:17:56.592Z,14
2023-05-19T19:20:05.363Z,13.9
2023-05-19T19:22:12.876Z,13.9
2023-05-19T19:24:20.586Z,13.8
2023-05-19T19:26:28.664Z,13.8
2023-05-19T19:28:37.538Z,13.7
2023-05-19T19:30:46.088Z,13.7
2023-05-19T19:32:54.380Z,13.6
2023-05-19T19:35:02.083Z,13.6
2023-05-19T19:37:09.627Z,13.6
2023-05-19T19:39:17.133Z,13.5
2023-05-19T19:41:26.148Z,13.6
2023-05-19T19:43:33.669Z,13.5
2023-05-19T19:45:42.506Z,13.5
2023-05-19T19:47:52.900Z,13.4
2023-05-19T19:50:02.275Z,13.4
2023-05-19T19:52:09.778Z,13.4
2023-05-19T19:54:18.482Z,13.3
2023-05-19T19:56:27.124Z,13.3
2023-05-19T19:58:35.068Z,13.3
2023-05-19T20:00:43.960Z,13.2
2023-05-19T20:03:04.162Z,13.2
2023-05-19T20:05:13.483Z,13.1
2023-05-19T20:07:22.708Z,13.1
2023-05-19T20:09:30.255Z,13.1
2023-05-19T20:11:38.334Z,13
2023-05-19T20:13:46.724Z,13
2023-05-19T20:15:55.746Z,13
2023-05-19T20:18:03.302Z,12.9
2023-05-19T20:20:12.534Z,12.9
2023-05-19T20:22:20.383Z,12.9
2023-05-19T20:24:28.054Z,12.9
2023-05-19T20:26:36.006Z,12.8
2023-05-19T20:28:43.601Z,12.8
2023-05-19T20:30:52.002Z,12.8
2023-05-19T20:33:02.325Z,12.8
2023-05-19T20:35:11.554Z,12.8
2023-05-19T20:37:20.586Z,12.8
2023-05-19T20:39:28.084Z,12.7
2023-05-19T20:41:35.659Z,12.7
2023-05-19T20:43:44.457Z,12.7
2023-05-19T20:45:52.036Z,12.7
2023-05-19T20:48:02.357Z,12.7
2023-05-19T20:50:09.937Z,12.7
2023-05-19T20:52:19.072Z,12.6
2023-05-19T20:54:27.402Z,12.6
2023-05-19T20:56:35.429Z,12.6
2023-05-19T20:58:43.639Z,12.6
2023-05-19T21:00:57.471Z,12.6
2023-05-19T21:03:11.515Z,12.6
2023-05-19T21:05:20.824Z,12.6
2023-05-19T21:07:28.332Z,12.5
2023-05-19T21:09:36.064Z,12.5
2023-05-19T21:11:43.586Z,12.5
2023-05-19T21:13:51.295Z,12.5
2023-05-19T21:15:59.204Z,12.5
2023-05-19T21:18:08.296Z,12.5
2023-05-19T21:20:15.862Z,12.5
2023-05-19T21:22:23.406Z,12.4
2023-05-19T21:24:30.883Z,12.4
2023-05-19T21:26:38.421Z,12.4
2023-05-19T21:28:45.928Z,12.3
2023-05-19T21:30:53.741Z,12.3
2023-05-19T21:33:01.670Z,12.2
2023-05-19T21:35:11.036Z,12.2
2023-05-19T21:37:19.348Z,12.1
2023-05-19T21:39:27.007Z,12.1
2023-05-19T21:41:35.162Z,12
2023-05-19T21:43:45.220Z,12
2023-05-19T21:45:54.204Z,11.9
2023-05-19T21:48:02.079Z,11.9
2023-05-19T21:50:15.469Z,11.8
2023-05-19T21:52:22.984Z,11.8
2023-05-19T21:54:30.527Z,11.8
2023-05-19T21:56:38.235Z,11.7
2023-05-19T21:58:45.928Z,11.7
2023-05-19T22:00:55.668Z,11.6
2023-05-19T22:03:03.377Z,11.6
2023-05-19T22:05:12.925Z,11.5
2023-05-19T22:07:26.301Z,11.5
2023-05-19T22:09:34.012Z,11.4
2023-05-19T22:11:41.712Z,11.4
2023-05-19T22:13:49.800Z,11.3
2023-05-19T22:15:57.629Z,11.3
2023-05-19T22:18:06.069Z,11.3
2023-05-19T22:20:25.690Z,11.2
2023-05-19T22:22:40.908Z,11.2
2023-05-19T22:24:48.756Z,11.1
2023-05-19T22:26:56.759Z,11.1
2023-05-19T22:29:35.468Z,11
2023-05-19T22:31:31.595Z,11
2023-05-19T22:33:52.293Z,11
2023-05-19T22:36:01.748Z,11
2023-05-19T22:38:10.554Z,11
2023-05-19T22:40:18.698Z,10.9
2023-05-19T22:42:30.449Z,10.9
2023-05-19T22:44:38.226Z,10.9
2023-05-19T22:46:46.350Z,10.8
2023-05-19T22:48:54.060Z,10.7
2023-05-19T22:51:03.025Z,10.7
2023-05-19T22:53:10.683Z,10.6
2023-05-19T22:55:18.229Z,10.6
2023-05-19T22:57:26.029Z,10.5
2023-05-19T22:59:35.263Z,10.5
2023-05-19T23:01:42.834Z,10.5
2023-05-19T23:03:51.217Z,10.5
2023-05-19T23:05:58.839Z,10.4
2023-05-19T23:08:08.149Z,10.4
2023-05-19T23:10:15.902Z,10.4
2023-05-19T23:12:23.406Z,10.4
2023-05-19T23:14:31.168Z,10.4
2023-05-19T23:16:39.147Z,10.4
2023-05-19T23:18:47.276Z,10.4
2023-05-19T23:20:54.880Z,10.3
2023-05-19T23:23:02.987Z,10.3
2023-05-19T23:25:12.011Z,10.4
2023-05-19T23:27:19.621Z,10.3
2023-05-19T23:29:27.186Z,10.3
2023-05-19T23:31:35.064Z,10.3
2023-05-19T23:33:42.917Z,10.3
2023-05-19T23:35:50.653Z,10.3
2023-05-19T23:37:58.170Z,10.3
2023-05-19T23:40:07.100Z,10.3
2023-05-19T23:42:15.939Z,10.3
2023-05-19T23:44:23.676Z,10.2
2023-05-19T23:46:31.394Z,10.2
2023-05-19T23:48:39.054Z,10.2
2023-05-19T23:50:46.715Z,10.2
2023-05-19T23:52:54.346Z,10.2
2023-05-19T23:55:03.193Z,10.2
2023-05-19T23:57:10.797Z,10.1
2023-05-19T23:59:19.787Z,10.1
